Time;durP1;ratioP1;P1;durP2;ratioP2;P2;SDS_P1;SDS_P2;PMS_P1;PMS_P2;Temp;Humidity;BMP_temperature;BMP_pressure;BME280_temperature;BME280_humidity;BME280_pressure;Samples;Min_cycle;Max_cycle;Signal;HPM_P1;HPM_P2
2021/06/09 00:01:50;;;;;;;2.28;1.98;;;26.10;41.90;;;;;;5084497;28;20154;-61
2021/06/09 00:04:16;;;;;;;3.97;2.22;;;26.10;42.00;;;;;;5079686;28;20039;-60
2021/06/09 00:06:42;;;;;;;2.45;2.25;;;26.10;42.00;;;;;;5091640;28;20304;-62
2021/06/09 00:09:08;;;;;;;2.60;2.28;;;26.10;42.00;;;;;;5075407;28;20055;-61
2021/06/09 00:11:34;;;;;;;2.30;1.90;;;26.10;42.00;;;;;;5086052;28;20027;-61
2021/06/09 00:14:00;;;;;;;3.05;1.90;;;26.00;42.00;;;;;;5087524;28;20058;-61
2021/06/09 00:16:27;;;;;;;2.45;2.25;;;26.00;42.00;;;;;;5080578;28;20021;-62
2021/06/09 00:18:53;;;;;;;2.45;2.22;;;26.00;42.10;;;;;;5089712;28;20024;-61
2021/06/09 00:21:19;;;;;;;3.08;2.25;;;26.00;42.10;;;;;;5087322;28;20462;-61
2021/06/09 00:23:46;;;;;;;2.10;1.80;;;26.00;42.10;;;;;;5086875;28;20031;-62
2021/06/09 00:26:14;;;;;;;2.17;1.98;;;26.00;42.10;;;;;;5089349;28;20032;-60
2021/06/09 00:28:41;;;;;;;1.80;1.70;;;26.00;42.10;;;;;;5076081;28;20064;-61
2021/06/09 00:31:08;;;;;;;2.00;1.80;;;26.00;42.20;;;;;;5079458;28;20340;-60
2021/06/09 00:33:35;;;;;;;2.17;1.98;;;26.00;42.20;;;;;;5092459;28;20101;-60
2021/06/09 00:36:01;;;;;;;2.58;2.03;;;25.90;42.20;;;;;;5082056;28;20029;-59
2021/06/09 00:38:28;;;;;;;2.20;2.00;;;26.00;42.30;;;;;;5083985;28;20033;-61
2021/06/09 00:40:56;;;;;;;2.35;2.15;;;26.00;42.30;;;;;;5082031;28;20377;-60
2021/06/09 00:43:23;;;;;;;3.08;2.20;;;25.90;42.20;;;;;;5086566;28;20043;-62
2021/06/09 00:45:58;;;;;;;2.08;1.88;;;26.00;42.30;;;;;;5081126;28;20097;-60
2021/06/09 00:48:28;;;;;;;2.15;1.95;;;25.90;42.30;;;;;;5093069;28;20729;-60
2021/06/09 00:50:55;;;;;;;2.08;1.80;;;25.90;42.30;;;;;;5077720;28;20042;-61
2021/06/09 00:53:28;;;;;;;2.03;1.88;;;25.90;42.40;;;;;;5077484;28;20032;-59
2021/06/09 00:56:00;;;;;;;2.33;2.13;;;25.90;42.40;;;;;;5083987;28;20028;-61
2021/06/09 00:58:26;;;;;;;2.40;2.20;;;25.90;42.40;;;;;;5081439;28;20062;-60
2021/06/09 01:00:52;;;;;;;3.53;2.10;;;25.90;42.40;;;;;;5083810;28;20028;-61
2021/06/09 01:03:19;;;;;;;1.90;1.70;;;25.90;42.40;;;;;;5087787;28;20066;-61
2021/06/09 01:05:45;;;;;;;2.42;2.00;;;25.90;42.50;;;;;;5079350;28;20036;-60
2021/06/09 01:08:15;;;;;;;2.38;2.17;;;25.90;42.50;;;;;;5075933;28;20047;-59
2021/06/09 01:10:41;;;;;;;2.40;2.20;;;25.90;42.50;;;;;;5079909;28;20051;-60
2021/06/09 01:13:07;;;;;;;3.22;2.00;;;25.90;42.50;;;;;;5084973;28;20024;-60
2021/06/09 01:15:33;;;;;;;2.50;2.30;;;25.80;42.50;;;;;;5079053;28;20036;-61
2021/06/09 01:17:59;;;;;;;2.20;2.00;;;25.90;42.60;;;;;;5084000;28;20124;-60
2021/06/09 01:20:26;;;;;;;1.85;1.73;;;25.90;42.70;;;;;;5088586;28;20020;-59
2021/06/09 01:22:52;;;;;;;1.90;1.67;;;25.80;42.60;;;;;;5076683;28;20063;-60
2021/06/09 01:25:22;;;;;;;2.40;2.03;;;25.80;42.70;;;;;;5078118;28;20035;-61
2021/06/09 01:27:49;;;;;;;2.50;2.03;;;25.80;42.70;;;;;;5076167;28;20056;-59
2021/06/09 01:30:16;;;;;;;2.30;2.08;;;25.80;42.70;;;;;;5091079;28;20024;-61
2021/06/09 01:32:42;;;;;;;2.28;2.08;;;25.80;42.80;;;;;;5076572;28;20451;-62
2021/06/09 01:35:08;;;;;;;1.90;1.80;;;25.80;42.90;;;;;;5080561;28;20455;-62
2021/06/09 01:37:35;;;;;;;2.38;2.10;;;25.80;42.90;;;;;;5077201;28;20039;-60
2021/06/09 01:40:00;;;;;;;2.33;2.10;;;25.90;43.00;;;;;;5084620;28;20028;-61
2021/06/09 01:42:28;;;;;;;2.13;1.92;;;25.80;43.00;;;;;;5087385;28;20024;-62
2021/06/09 01:44:54;;;;;;;2.15;1.95;;;25.80;43.00;;;;;;5080450;28;20126;-61
2021/06/09 01:47:21;;;;;;;2.50;2.03;;;25.80;43.00;;;;;;5075399;28;20080;-61
2021/06/09 01:49:47;;;;;;;2.33;2.13;;;25.80;43.10;;;;;;5088361;28;20442;-60
2021/06/09 01:52:14;;;;;;;2.35;2.15;;;25.80;43.10;;;;;;5084849;28;20025;-60
2021/06/09 01:54:40;;;;;;;1.98;1.85;;;25.80;43.10;;;;;;5075278;28;20503;-61
2021/06/09 01:57:07;;;;;;;2.50;2.30;;;25.80;43.20;;;;;;5086324;28;20028;-61
2021/06/09 01:59:34;;;;;;;2.20;2.00;;;25.80;43.20;;;;;;5089722;28;20028;-62
2021/06/09 02:02:00;;;;;;;2.90;2.00;;;25.80;43.30;;;;;;5084826;28;21469;-60
2021/06/09 02:04:28;;;;;;;2.53;2.25;;;25.80;43.30;;;;;;5088646;28;20111;-60
2021/06/09 02:06:55;;;;;;;2.50;2.30;;;25.80;43.30;;;;;;5084622;28;20039;-59
2021/06/09 02:09:22;;;;;;;2.47;2.28;;;25.80;43.40;;;;;;5091848;28;20525;-59
2021/06/09 02:11:48;;;;;;;2.70;2.17;;;25.80;43.40;;;;;;5085979;28;20791;-60
2021/06/09 02:14:16;;;;;;;1.80;1.70;;;25.80;43.50;;;;;;5081059;28;20036;-59
2021/06/09 02:16:43;;;;;;;2.53;2.10;;;25.80;43.50;;;;;;5086588;28;20039;-60
2021/06/09 02:19:10;;;;;;;2.33;1.90;;;25.80;43.50;;;;;;5090015;28;20027;-60
2021/06/09 02:21:38;;;;;;;2.40;2.17;;;25.80;43.50;;;;;;5088130;28;20025;-61
2021/06/09 02:24:06;;;;;;;2.05;1.85;;;25.80;43.60;;;;;;5093500;28;20024;-60
2021/06/09 02:26:32;;;;;;;2.45;2.25;;;25.80;43.60;;;;;;5083708;28;20111;-61
2021/06/09 02:29:00;;;;;;;2.08;1.88;;;25.80;43.60;;;;;;5092759;28;20478;-61
2021/06/09 02:31:26;;;;;;;2.40;2.08;;;25.80;43.60;;;;;;5086206;28;20031;-61
2021/06/09 02:33:53;;;;;;;2.22;1.98;;;25.70;43.60;;;;;;5078230;28;20032;-60
2021/06/09 02:36:19;;;;;;;2.33;2.13;;;25.70;43.60;;;;;;5085416;28;20032;-60
2021/06/09 02:38:46;;;;;;;2.72;2.47;;;25.80;43.70;;;;;;5091772;28;20042;-61
2021/06/09 02:41:12;;;;;;;2.97;2.40;;;25.70;43.70;;;;;;5082905;28;20020;-61
2021/06/09 02:43:38;;;;;;;5.22;2.25;;;25.70;43.80;;;;;;5081487;28;20103;-61
2021/06/09 02:46:16;;;;;;;2.60;2.40;;;25.70;43.80;;;;;;5081480;28;20086;-60
2021/06/09 02:48:46;;;;;;;2.20;1.98;;;25.70;43.80;;;;;;5081985;28;20057;-62
2021/06/09 02:51:18;;;;;;;2.20;1.98;;;25.70;43.90;;;;;;5081521;28;20032;-61
2021/06/09 02:53:53;;;;;;;2.45;2.25;;;25.70;43.90;;;;;;5081415;28;20395;-61
2021/06/09 02:56:48;;;;;;;2.80;2.50;;;25.70;44.00;;;;;;5093230;28;20028;-58
2021/06/09 02:59:35;;;;;;;2.60;2.40;;;25.70;44.00;;;;;;5079632;28;20523;-61
2021/06/09 03:02:21;;;;;;;2.42;2.22;;;25.70;44.00;;;;;;5082905;28;20098;-61
2021/06/09 03:04:51;;;;;;;3.05;2.40;;;25.60;44.00;;;;;;5084398;28;20463;-60
2021/06/09 03:07:44;;;;;;;2.30;2.10;;;25.60;44.10;;;;;;5076099;28;20035;-58
2021/06/09 03:10:27;;;;;;;2.40;2.20;;;25.60;44.10;;;;;;5088968;28;20048;-61
2021/06/09 03:13:26;;;;;;;2.50;2.30;;;25.60;44.10;;;;;;5079680;28;20085;-60
2021/06/09 03:16:11;;;;;;;2.45;2.20;;;25.60;44.10;;;;;;5074673;28;20032;-59
2021/06/09 03:18:45;;;;;;;2.45;2.25;;;25.60;44.10;;;;;;5077959;28;20040;-61
2021/06/09 03:21:26;;;;;;;2.55;2.35;;;25.60;44.20;;;;;;5077738;28;20519;-59
2021/06/09 03:24:04;;;;;;;2.50;2.20;;;25.60;44.20;;;;;;5082009;28;20138;-59
2021/06/09 03:26:46;;;;;;;2.70;2.50;;;25.60;44.30;;;;;;5075231;28;20515;-60
2021/06/09 03:29:27;;;;;;;2.50;2.30;;;25.60;44.20;;;;;;5089288;28;20040;-61
2021/06/09 03:32:00;;;;;;;2.80;2.60;;;25.60;44.30;;;;;;5088009;28;20101;-62
2021/06/09 03:34:39;;;;;;;2.50;2.30;;;25.60;44.30;;;;;;5086711;28;20435;-62
2021/06/09 03:37:07;;;;;;;2.58;2.38;;;25.60;44.40;;;;;;5083328;28;20043;-60
2021/06/09 03:39:35;;;;;;;2.28;2.08;;;25.50;44.30;;;;;;5076263;28;20077;-61
2021/06/09 03:42:01;;;;;;;2.60;2.40;;;25.50;44.30;;;;;;5077677;28;20458;-61
2021/06/09 03:44:33;;;;;;;2.35;2.15;;;25.50;44.30;;;;;;5085800;28;20065;-59
2021/06/09 03:47:00;;;;;;;2.88;2.58;;;25.50;44.40;;;;;;5079010;28;20547;-60
2021/06/09 03:49:27;;;;;;;3.50;2.65;;;25.50;44.40;;;;;;5087490;28;20493;-61
2021/06/09 03:51:54;;;;;;;2.95;2.63;;;25.50;44.40;;;;;;5080441;28;20109;-61
2021/06/09 03:54:22;;;;;;;2.42;2.22;;;25.50;44.40;;;;;;5082672;28;20750;-60
2021/06/09 03:56:50;;;;;;;2.50;2.30;;;25.50;44.40;;;;;;5075718;28;20024;-60
2021/06/09 03:59:19;;;;;;;2.47;2.28;;;25.50;44.40;;;;;;5078745;28;20066;-60
2021/06/09 04:01:47;;;;;;;2.78;2.42;;;25.50;44.50;;;;;;5080682;28;20497;-59
2021/06/09 04:04:18;;;;;;;2.75;2.55;;;25.50;44.50;;;;;;5085179;28;21516;-59
2021/06/09 04:06:45;;;;;;;2.47;2.28;;;25.50;44.50;;;;;;5082060;28;20142;-59
2021/06/09 04:09:17;;;;;;;3.03;2.60;;;25.50;44.50;;;;;;5075238;28;96356;-61
2021/06/09 04:11:44;;;;;;;2.75;2.45;;;25.50;44.50;;;;;;5081822;28;20036;-58
2021/06/09 04:14:11;;;;;;;3.05;2.55;;;25.50;44.60;;;;;;5090357;28;20034;-60
2021/06/09 04:16:39;;;;;;;2.97;2.67;;;25.50;44.50;;;;;;5075692;28;20020;-60
2021/06/09 04:19:07;;;;;;;2.35;2.15;;;25.50;44.60;;;;;;5083676;28;20110;-60
2021/06/09 04:21:33;;;;;;;3.30;2.90;;;25.50;44.60;;;;;;5088021;28;20036;-59
2021/06/09 04:23:59;;;;;;;2.88;2.58;;;25.50;45.20;;;;;;5079768;28;20032;-58
2021/06/09 04:26:25;;;;;;;2.58;2.38;;;25.50;44.60;;;;;;5079520;28;20093;-58
2021/06/09 04:28:54;;;;;;;3.78;2.50;;;25.50;44.60;;;;;;5076340;28;20032;-61
2021/06/09 04:31:20;;;;;;;2.92;2.63;;;25.60;44.70;;;;;;5090355;28;20028;-56
2021/06/09 04:33:53;;;;;;;2.75;2.50;;;25.50;44.70;;;;;;5081684;28;20409;-60
2021/06/09 04:36:19;;;;;;;3.08;2.78;;;25.60;44.70;;;;;;5091775;28;20042;-59
2021/06/09 04:38:44;;;;;;;2.50;2.30;;;25.50;44.70;;;;;;5081971;28;20032;-60
2021/06/09 04:41:10;;;;;;;2.92;2.67;;;25.60;44.80;;;;;;5077423;28;20072;-61
2021/06/09 04:43:36;;;;;;;3.00;2.70;;;25.50;44.70;;;;;;5085614;28;20071;-62
2021/06/09 04:46:03;;;;;;;2.92;2.65;;;25.60;44.80;;;;;;5077743;28;20100;-61
2021/06/09 04:48:29;;;;;;;3.10;2.80;;;25.60;44.80;;;;;;5083803;28;20123;-58
2021/06/09 04:50:55;;;;;;;2.33;2.13;;;25.60;44.80;;;;;;5088864;28;20111;-57
2021/06/09 04:53:21;;;;;;;3.25;2.95;;;25.60;44.80;;;;;;5080585;28;20064;-61
2021/06/09 04:55:52;;;;;;;2.85;2.65;;;25.60;44.80;;;;;;5087603;28;20089;-61
2021/06/09 04:58:20;;;;;;;2.72;2.53;;;25.60;44.90;;;;;;5087141;28;20032;-60
2021/06/09 05:00:47;;;;;;;3.22;2.90;;;25.60;44.90;;;;;;5084580;28;20060;-60
2021/06/09 05:03:13;;;;;;;3.05;2.75;;;25.60;44.90;;;;;;5083689;28;20031;-59
2021/06/09 05:05:39;;;;;;;2.70;2.50;;;25.60;45.00;;;;;;5081586;28;20032;-61
2021/06/09 05:08:05;;;;;;;2.78;2.53;;;25.60;45.00;;;;;;5081969;28;20071;-61
2021/06/09 05:10:34;;;;;;;3.38;3.05;;;25.60;45.00;;;;;;5083120;28;20452;-59
2021/06/09 05:13:24;;;;;;;3.00;2.80;;;25.60;45.10;;;;;;5075014;28;20028;-60
2021/06/09 05:15:57;;;;;;;2.85;2.42;;;25.60;45.10;;;;;;5079362;28;20111;-59
2021/06/09 05:18:32;;;;;;;2.92;2.65;;;25.60;45.10;;;;;;5074003;28;20025;-60
2021/06/09 05:20:58;;;;;;;3.15;2.85;;;25.60;45.10;;;;;;5086194;28;20039;-61
2021/06/09 05:23:28;;;;;;;3.08;2.78;;;25.60;45.20;;;;;;5079617;28;20017;-60
2021/06/09 05:25:56;;;;;;;3.03;2.80;;;25.60;45.20;;;;;;5087090;28;20024;-59
2021/06/09 05:28:25;;;;;;;3.28;2.97;;;25.60;45.20;;;;;;5086544;28;20032;-52
2021/06/09 05:30:55;;;;;;;2.85;2.60;;;25.60;45.20;;;;;;5090749;28;20028;-59
2021/06/09 05:33:22;;;;;;;3.35;3.05;;;25.60;45.20;;;;;;5078115;28;20029;-58
2021/06/09 05:35:51;;;;;;;3.40;3.10;;;25.60;45.20;;;;;;5079719;28;20417;-58
2021/06/09 05:38:19;;;;;;;3.25;2.95;;;25.60;45.20;;;;;;5075265;28;20042;-57
2021/06/09 05:40:45;;;;;;;3.25;2.95;;;25.70;45.30;;;;;;5082917;28;20462;-59
2021/06/09 05:43:11;;;;;;;3.35;3.05;;;25.70;45.40;;;;;;5078071;28;20412;-60
2021/06/09 05:45:39;;;;;;;3.53;3.22;;;25.60;45.40;;;;;;5082385;28;20111;-59
2021/06/09 05:48:05;;;;;;;3.35;3.05;;;25.70;45.40;;;;;;5076147;28;20055;-60
2021/06/09 05:50:32;;;;;;;3.85;3.53;;;25.70;45.40;;;;;;5083075;28;20024;-59
2021/06/09 05:53:04;;;;;;;3.70;3.40;;;25.70;45.50;;;;;;5079080;28;20435;-60
2021/06/09 05:55:31;;;;;;;3.30;3.00;;;25.70;45.50;;;;;;5077638;28;20472;-59
2021/06/09 05:58:02;;;;;;;3.63;3.33;;;25.70;45.50;;;;;;5075268;28;20043;-60
2021/06/09 06:00:30;;;;;;;3.95;3.55;;;25.70;45.60;;;;;;5079008;28;20028;-57
2021/06/09 06:02:56;;;;;;;3.58;3.28;;;25.70;45.60;;;;;;5085675;28;20098;-62
2021/06/09 06:05:24;;;;;;;3.65;3.33;;;25.70;45.60;;;;;;5081617;28;20042;-59
2021/06/09 06:07:51;;;;;;;3.67;3.38;;;25.80;45.70;;;;;;5076475;28;20037;-59
2021/06/09 06:10:18;;;;;;;3.92;3.55;;;25.80;45.70;;;;;;5083262;28;20043;-59
2021/06/09 06:12:44;;;;;;;3.83;3.30;;;25.80;46.40;;;;;;5082346;28;20028;-61
2021/06/09 06:15:12;;;;;;;3.83;3.47;;;25.80;45.80;;;;;;5085169;28;20040;-59
2021/06/09 06:17:39;;;;;;;4.15;3.60;;;25.80;45.80;;;;;;5088757;28;20401;-61
2021/06/09 06:20:12;;;;;;;4.05;3.65;;;25.80;45.90;;;;;;5092263;28;20032;-60
2021/06/09 06:22:38;;;;;;;4.18;3.75;;;25.80;45.90;;;;;;5086457;28;20032;-59
2021/06/09 06:25:05;;;;;;;4.22;3.80;;;25.80;45.90;;;;;;5073221;28;20430;-59
2021/06/09 06:27:33;;;;;;;3.90;3.45;;;25.80;45.90;;;;;;5080163;28;20458;-59
2021/06/09 06:29:59;;;;;;;4.43;4.03;;;25.80;46.00;;;;;;5090112;28;20028;-58
2021/06/09 06:32:26;;;;;;;5.90;3.85;;;25.80;46.00;;;;;;5075263;28;20414;-61
2021/06/09 06:34:54;;;;;;;4.60;4.20;;;25.80;46.00;;;;;;5076137;28;20028;-58
2021/06/09 06:37:23;;;;;;;4.90;4.30;;;25.80;46.00;;;;;;5074277;28;20047;-60
2021/06/09 06:39:50;;;;;;;5.57;4.15;;;25.90;46.10;;;;;;5080408;28;20024;-58
2021/06/09 06:42:18;;;;;;;4.82;4.32;;;25.80;46.10;;;;;;5087648;28;20089;-58
2021/06/09 06:44:44;;;;;;;4.88;4.13;;;25.80;46.10;;;;;;5086094;28;20028;-59
2021/06/09 06:47:12;;;;;;;4.38;3.97;;;25.90;46.10;;;;;;5088207;28;20020;-60
2021/06/09 06:49:38;;;;;;;5.45;4.70;;;25.90;46.10;;;;;;5073850;28;20112;-59
2021/06/09 06:52:05;;;;;;;4.40;4.00;;;25.90;46.10;;;;;;5075570;28;20033;-59
2021/06/09 06:54:31;;;;;;;4.45;4.05;;;25.90;46.10;;;;;;5096682;28;20035;-59
2021/06/09 06:56:58;;;;;;;5.38;4.50;;;25.80;46.10;;;;;;5096740;28;20028;-60
2021/06/09 06:59:25;;;;;;;5.05;4.55;;;25.90;46.10;;;;;;5096881;28;20085;-60
2021/06/09 07:01:52;;;;;;;4.72;3.97;;;25.90;46.10;;;;;;5095895;28;20024;-60
2021/06/09 07:04:19;;;;;;;5.07;4.57;;;25.90;46.20;;;;;;5096497;28;20036;-58
2021/06/09 07:06:47;;;;;;;4.07;3.75;;;25.90;46.20;;;;;;5096894;28;20036;-60
2021/06/09 07:09:14;;;;;;;4.55;4.15;;;25.90;46.20;;;;;;5096190;28;20032;-54
2021/06/09 07:11:45;;;;;;;4.28;3.88;;;25.90;46.20;;;;;;5097061;28;20132;-58
2021/06/09 07:14:11;;;;;;;4.03;3.63;;;25.90;46.20;;;;;;5095210;28;20139;-62
2021/06/09 07:16:41;;;;;;;4.93;4.28;;;25.90;46.10;;;;;;5090217;28;20066;-61
2021/06/09 07:19:08;;;;;;;4.18;3.78;;;26.00;46.20;;;;;;5084200;28;20388;-58
2021/06/09 07:21:34;;;;;;;4.43;4.03;;;26.00;46.20;;;;;;5085489;28;20032;-61
2021/06/09 07:24:03;;;;;;;4.22;3.83;;;26.00;46.20;;;;;;5090518;28;20397;-60
2021/06/09 07:26:34;;;;;;;4.30;3.90;;;26.00;46.20;;;;;;5090345;28;20028;-60
2021/06/09 07:29:00;;;;;;;4.82;3.88;;;26.00;46.20;;;;;;5092954;28;20127;-59
2021/06/09 07:31:32;;;;;;;3.83;3.50;;;26.00;46.10;;;;;;5076274;28;20038;-57
2021/06/09 07:33:58;;;;;;;4.75;3.60;;;26.00;46.10;;;;;;5085047;28;20031;-58
2021/06/09 07:36:28;;;;;;;4.72;4.28;;;26.00;46.10;;;;;;5096354;28;20435;-60
2021/06/09 07:39:04;;;;;;;4.47;4.07;;;26.10;46.10;;;;;;5095553;28;20051;-59
2021/06/09 07:41:32;;;;;;;4.53;4.13;;;26.00;46.10;;;;;;5095841;28;20044;-60
2021/06/09 07:44:02;;;;;;;4.10;3.70;;;26.10;46.10;;;;;;5095496;28;20035;-60
2021/06/09 07:46:31;;;;;;;3.88;3.47;;;26.10;46.10;;;;;;5090378;28;20024;-60
2021/06/09 07:49:00;;;;;;;3.80;3.35;;;26.10;46.10;;;;;;5094561;28;20064;-59
2021/06/09 07:51:27;;;;;;;4.10;3.72;;;26.10;46.10;;;;;;5063856;28;20363;-58
2021/06/09 07:53:57;;;;;;;4.90;4.00;;;26.10;46.10;;;;;;5084432;28;20446;-59
2021/06/09 07:56:31;;;;;;;3.55;3.22;;;26.10;46.00;;;;;;5082426;28;20025;-61
2021/06/09 07:58:57;;;;;;;3.70;3.40;;;26.10;46.00;;;;;;5082764;28;20020;-60
2021/06/09 08:01:23;;;;;;;3.65;3.22;;;26.10;46.00;;;;;;5084369;28;20079;-60
2021/06/09 08:03:50;;;;;;;4.18;3.78;;;26.10;46.00;;;;;;5093898;28;20355;-57
2021/06/09 08:06:17;;;;;;;3.45;3.15;;;26.10;45.90;;;;;;5093545;28;20100;-60
2021/06/09 08:08:45;;;;;;;3.40;2.92;;;26.10;45.90;;;;;;5092640;28;20101;-59
2021/06/09 08:11:12;;;;;;;3.65;3.35;;;26.10;45.80;;;;;;5094471;28;20066;-57
2021/06/09 08:13:39;;;;;;;3.60;3.30;;;26.10;45.80;;;;;;5095724;28;20039;-60
2021/06/09 08:16:31;;;;;;;3.40;3.10;;;26.10;45.80;;;;;;5095417;28;20032;-61
2021/06/09 08:18:57;;;;;;;3.80;3.10;;;26.10;45.70;;;;;;5094019;28;20101;-60
2021/06/09 08:21:25;;;;;;;4.20;3.50;;;26.10;45.70;;;;;;5094036;28;20031;-57
2021/06/09 08:23:53;;;;;;;3.28;2.97;;;26.10;45.70;;;;;;5095625;28;20111;-58
2021/06/09 08:26:20;;;;;;;3.55;3.25;;;26.10;45.70;;;;;;5094205;28;20028;-58
2021/06/09 08:28:47;;;;;;;3.67;3.38;;;26.10;45.70;;;;;;5094966;28;20040;-60
2021/06/09 08:31:16;;;;;;;3.38;3.08;;;26.20;45.70;;;;;;5095167;28;20039;-60
2021/06/09 08:33:42;;;;;;;3.53;3.20;;;26.20;45.70;;;;;;5095033;28;20028;-59
2021/06/09 08:36:11;;;;;;;3.47;3.17;;;26.10;45.60;;;;;;5093929;28;20035;-59
2021/06/09 08:38:37;;;;;;;3.55;3.00;;;26.20;45.60;;;;;;5094483;28;20051;-59
2021/06/09 08:41:05;;;;;;;3.17;2.90;;;26.10;45.50;;;;;;5095190;28;20424;-60
2021/06/09 08:43:34;;;;;;;3.53;3.03;;;26.20;45.60;;;;;;5093567;28;20066;-56
2021/06/09 08:46:06;;;;;;;3.92;3.53;;;26.20;45.50;;;;;;5091714;28;20034;-58
2021/06/09 08:48:37;;;;;;;3.17;2.88;;;26.20;45.50;;;;;;5094630;28;20458;-57
2021/06/09 08:51:05;;;;;;;3.05;2.75;;;26.20;45.50;;;;;;5094269;28;20118;-59
2021/06/09 08:53:34;;;;;;;3.83;3.15;;;26.20;45.50;;;;;;5093192;28;20439;-60
2021/06/09 08:56:00;;;;;;;3.13;2.83;;;26.20;45.40;;;;;;5094019;28;20075;-58
2021/06/09 08:58:26;;;;;;;3.22;2.88;;;26.30;45.50;;;;;;5093334;28;20032;-58
2021/06/09 09:00:52;;;;;;;3.55;3.25;;;26.20;45.40;;;;;;5095190;28;20085;-60
2021/06/09 09:03:18;;;;;;;3.42;2.78;;;26.30;45.40;;;;;;5093684;28;20371;-60
2021/06/09 09:05:44;;;;;;;3.20;2.80;;;26.20;45.30;;;;;;5091776;28;20047;-60
2021/06/09 09:08:10;;;;;;;3.42;3.13;;;26.30;45.20;;;;;;5085351;28;20055;-60
2021/06/09 09:10:36;;;;;;;3.05;2.78;;;26.30;45.10;;;;;;5091980;28;20066;-58
2021/06/09 09:13:04;;;;;;;3.13;2.80;;;26.30;45.00;;;;;;5094451;28;20031;-60
2021/06/09 09:15:30;;;;;;;3.10;2.75;;;26.30;45.00;;;;;;5094377;28;20115;-60
2021/06/09 09:17:58;;;;;;;3.55;2.70;;;26.30;44.90;;;;;;5086022;28;20099;-61
2021/06/09 09:20:28;;;;;;;3.63;3.30;;;26.30;44.80;;;;;;5093326;28;20028;-61
2021/06/09 09:22:57;;;;;;;3.30;2.90;;;26.30;44.70;;;;;;5083160;28;20040;-60
2021/06/09 09:25:26;;;;;;;3.20;2.53;;;26.30;44.60;;;;;;5085729;28;20032;-59
2021/06/09 09:28:01;;;;;;;3.25;2.90;;;26.30;44.60;;;;;;5093177;28;20036;-60
2021/06/09 09:30:31;;;;;;;3.08;2.78;;;26.30;44.60;;;;;;5094000;28;20475;-59
2021/06/09 09:32:58;;;;;;;3.05;2.85;;;26.30;44.60;;;;;;5092699;28;20434;-59
2021/06/09 09:35:29;;;;;;;3.13;2.88;;;26.30;44.50;;;;;;5093659;28;20340;-57
2021/06/09 09:38:17;;;;;;;2.80;2.60;;;26.30;44.50;;;;;;5081980;28;20059;-60
2021/06/09 09:41:16;;;;;;;2.90;2.60;;;26.30;44.40;;;;;;5078783;28;20142;-60
2021/06/09 09:43:45;;;;;;;2.72;2.53;;;26.30;44.40;;;;;;5047423;28;20051;-59
2021/06/09 09:46:20;;;;;;;2.88;2.67;;;26.30;44.50;;;;;;5087293;28;20044;-57
2021/06/09 09:49:00;;;;;;;2.90;2.60;;;26.30;44.40;;;;;;5091433;28;20447;-59
2021/06/09 09:51:29;;;;;;;3.28;2.70;;;26.40;44.30;;;;;;5092575;28;20036;-59
2021/06/09 09:54:00;;;;;;;2.70;2.40;;;26.40;44.30;;;;;;5092341;28;20506;-59
2021/06/09 09:56:29;;;;;;;2.78;2.58;;;26.40;44.30;;;;;;5093139;28;20173;-60
2021/06/09 09:59:07;;;;;;;2.88;2.58;;;26.40;44.20;;;;;;5094011;28;20036;-60
2021/06/09 10:01:34;;;;;;;2.97;2.78;;;26.30;44.10;;;;;;5091685;28;20427;-61
2021/06/09 10:04:01;;;;;;;2.47;2.28;;;26.40;44.10;;;;;;5093539;28;20446;-61
2021/06/09 10:06:41;;;;;;;3.40;2.90;;;26.30;44.00;;;;;;5085616;28;20089;-61
2021/06/09 10:09:12;;;;;;;2.20;2.00;;;26.40;44.00;;;;;;5091588;28;20065;-60
2021/06/09 10:12:04;;;;;;;3.00;2.58;;;26.40;44.00;;;;;;5094124;28;20348;-62
2021/06/09 10:14:45;;;;;;;3.35;2.83;;;26.40;43.90;;;;;;5088486;28;20107;-57
2021/06/09 10:17:28;;;;;;;2.80;2.60;;;26.40;43.90;;;;;;5093310;28;20039;-60
2021/06/09 10:19:58;;;;;;;2.70;2.50;;;26.50;43.90;;;;;;5087954;28;20129;-62
2021/06/09 10:22:34;;;;;;;3.20;2.90;;;26.50;43.80;;;;;;5092728;28;20039;-60
2021/06/09 10:25:11;;;;;;;3.05;2.55;;;26.50;43.80;;;;;;5093929;28;20118;-60
2021/06/09 10:27:50;;;;;;;2.72;2.53;;;26.50;43.70;;;;;;5095967;28;20047;-61
2021/06/09 10:30:25;;;;;;;2.90;2.70;;;26.50;43.60;;;;;;5097186;28;20031;-60
2021/06/09 10:32:57;;;;;;;3.05;2.67;;;26.50;44.10;;;;;;5097584;28;20063;-59
2021/06/09 10:35:26;;;;;;;2.67;2.38;;;26.50;43.40;;;;;;5080571;28;20504;-57
2021/06/09 10:37:54;;;;;;;2.58;2.38;;;26.50;43.20;;;;;;5097275;28;20031;-59
2021/06/09 10:40:22;;;;;;;2.53;2.33;;;26.50;43.00;;;;;;5096869;28;20427;-56
2021/06/09 10:42:49;;;;;;;2.35;2.15;;;26.60;42.90;;;;;;5095312;28;20039;-59
2021/06/09 10:45:21;;;;;;;2.42;2.22;;;26.60;42.80;;;;;;5085175;28;20097;-61
2021/06/09 10:47:47;;;;;;;2.53;2.33;;;26.60;42.80;;;;;;5092208;28;20062;-59
2021/06/09 10:50:14;;;;;;;2.83;2.22;;;26.60;42.70;;;;;;5089720;28;20340;-57
2021/06/09 10:52:41;;;;;;;2.72;2.30;;;26.60;42.70;;;;;;5093614;28;20343;-62
2021/06/09 10:55:10;;;;;;;2.55;2.28;;;26.60;42.60;;;;;;5078287;28;20036;-60
2021/06/09 10:57:37;;;;;;;2.63;2.15;;;26.60;42.50;;;;;;5096195;28;20032;-60
2021/06/09 11:00:11;;;;;;;2.75;2.30;;;26.70;42.50;;;;;;5096951;28;20028;-60
2021/06/09 11:02:39;;;;;;;4.03;2.33;;;26.70;42.40;;;;;;5093956;28;20105;-60
2021/06/09 11:05:08;;;;;;;2.50;2.30;;;26.70;42.40;;;;;;5097000;28;20105;-56
2021/06/09 11:07:45;;;;;;;2.20;2.00;;;26.70;42.30;;;;;;5096251;28;20042;-59
2021/06/09 11:10:17;;;;;;;2.30;2.10;;;26.70;42.30;;;;;;5085569;28;20048;-59
2021/06/09 11:12:48;;;;;;;2.38;2.17;;;26.70;42.20;;;;;;5096539;28;20024;-59
2021/06/09 11:15:24;;;;;;;2.33;2.13;;;26.70;42.20;;;;;;5096340;28;20031;-58
2021/06/09 11:17:57;;;;;;;2.60;2.33;;;26.70;42.20;;;;;;5096705;28;20443;-59
2021/06/09 11:20:38;;;;;;;2.20;2.03;;;26.70;42.20;;;;;;5096516;28;20032;-59
2021/06/09 11:23:12;;;;;;;2.30;2.10;;;26.70;42.20;;;;;;5096403;28;20034;-60
2021/06/09 11:25:44;;;;;;;2.63;2.35;;;26.70;42.20;;;;;;5096052;28;20074;-58
2021/06/09 11:28:14;;;;;;;2.10;1.95;;;26.70;42.20;;;;;;5096167;28;20048;-58
2021/06/09 11:30:42;;;;;;;3.47;2.00;;;26.70;42.20;;;;;;5093366;28;20028;-59
2021/06/09 11:33:10;;;;;;;2.17;1.98;;;26.70;42.20;;;;;;5096678;28;20066;-59
2021/06/09 11:35:47;;;;;;;2.58;2.15;;;26.70;42.20;;;;;;5096455;28;20032;-59
2021/06/09 11:38:13;;;;;;;2.58;2.10;;;26.70;42.10;;;;;;5083116;28;20043;-59
2021/06/09 11:40:53;;;;;;;2.25;1.95;;;26.70;42.20;;;;;;5079560;28;20331;-60
2021/06/09 11:43:20;;;;;;;2.22;2.03;;;26.70;42.10;;;;;;5096557;28;20028;-60
2021/06/09 11:45:54;;;;;;;2.20;2.00;;;26.70;42.10;;;;;;5095740;28;20085;-59
2021/06/09 11:48:23;;;;;;;2.45;2.20;;;26.70;42.00;;;;;;5096518;28;20047;-59
2021/06/09 11:50:52;;;;;;;1.95;1.70;;;26.70;42.10;;;;;;5096406;28;20432;-60
2021/06/09 11:53:41;;;;;;;1.98;1.85;;;26.70;42.00;;;;;;5095269;28;20052;-60
2021/06/09 11:56:15;;;;;;;2.20;2.00;;;26.70;42.00;;;;;;5095820;28;20332;-59
2021/06/09 11:58:43;;;;;;;3.45;1.75;;;26.70;41.90;;;;;;5095553;28;20443;-59
2021/06/09 12:01:12;;;;;;;2.40;1.92;;;26.70;41.90;;;;;;5095615;28;20043;-59
2021/06/09 12:03:40;;;;;;;2.47;2.28;;;26.70;41.90;;;;;;5095758;28;20442;-59
2021/06/09 12:06:21;;;;;;;2.10;1.90;;;26.70;41.80;;;;;;5096098;28;20043;-58
2021/06/09 12:08:48;;;;;;;2.22;2.03;;;26.70;41.80;;;;;;5094476;28;20134;-60
2021/06/09 12:11:15;;;;;;;2.25;1.90;;;26.70;41.80;;;;;;5094077;28;20039;-59
2021/06/09 12:13:41;;;;;;;2.13;1.85;;;26.70;41.80;;;;;;5095793;28;20359;-56
2021/06/09 12:16:14;;;;;;;2.35;2.15;;;26.70;41.70;;;;;;5092652;28;20032;-58
2021/06/09 12:18:43;;;;;;;2.33;2.13;;;26.80;41.80;;;;;;5094953;28;20036;-59
2021/06/09 12:21:13;;;;;;;2.35;2.15;;;26.70;41.70;;;;;;5095853;28;20032;-56
2021/06/09 12:23:52;;;;;;;2.50;2.30;;;26.80;41.80;;;;;;5095196;28;20043;-61
2021/06/09 12:26:18;;;;;;;2.15;2.00;;;26.80;41.70;;;;;;5093679;28;20024;-60
2021/06/09 12:28:44;;;;;;;2.38;2.17;;;26.80;41.80;;;;;;5089689;28;20170;-59
2021/06/09 12:31:11;;;;;;;2.33;1.90;;;26.80;41.80;;;;;;5079005;28;20037;-56
2021/06/09 12:33:42;;;;;;;2.17;1.98;;;26.90;41.80;;;;;;5084360;28;20335;-59
2021/06/09 12:36:14;;;;;;;1.88;1.65;;;26.90;41.70;;;;;;5091681;28;20024;-63
2021/06/09 12:38:41;;;;;;;2.03;1.73;;;26.90;41.70;;;;;;5093912;28;20036;-61
2021/06/09 12:41:11;;;;;;;1.83;1.73;;;26.90;41.70;;;;;;5093423;28;20454;-61
2021/06/09 12:43:39;;;;;;;1.70;1.60;;;27.00;41.70;;;;;;5093113;28;20035;-60
2021/06/09 12:46:05;;;;;;;1.90;1.73;;;27.00;41.60;;;;;;5093955;28;20131;-59
2021/06/09 12:48:36;;;;;;;1.65;1.55;;;27.00;41.60;;;;;;5092453;28;20093;-61
2021/06/09 12:51:03;;;;;;;2.25;2.05;;;27.00;41.70;;;;;;5092787;28;20079;-60
2021/06/09 12:53:32;;;;;;;2.20;2.00;;;27.00;41.70;;;;;;5093911;28;20020;-60
2021/06/09 12:56:07;;;;;;;1.92;1.83;;;27.00;41.50;;;;;;5088448;28;20023;-54
2021/06/09 12:58:37;;;;;;;1.92;1.73;;;27.00;41.50;;;;;;5084949;28;20032;-60
2021/06/09 13:01:08;;;;;;;1.90;1.80;;;27.10;41.60;;;;;;5093811;28;20036;-60